sensor_id;sensor_type;location;lat;lon;timestamp;pressure;altitude;pressure_sealevel;temperature;humidity
64352;BME280;50680;52.626;-8.668;2023-01-28T00:01:18;103446.38;;;1.07;100.00
64352;BME280;50680;52.626;-8.668;2023-01-28T00:03:48;103448.31;;;1.18;100.00
64352;BME280;50680;52.626;-8.668;2023-01-28T00:06:17;103429.53;;;1.25;100.00
64352;BME280;50680;52.626;-8.668;2023-01-28T00:08:44;103433.22;;;1.36;100.00
64352;BME280;50680;52.626;-8.668;2023-01-28T00:11:12;103434.25;;;1.43;100.00
64352;BME280;50680;52.626;-8.668;2023-01-28T00:13:39;103431.00;;;1.52;100.00
64352;BME280;50680;52.626;-8.668;2023-01-28T00:16:07;103436.38;;;1.61;100.00
64352;BME280;50680;52.626;-8.668;2023-01-28T00:18:36;103434.78;;;1.67;100.00
64352;BME280;50680;52.626;-8.668;2023-01-28T00:21:05;103439.25;;;1.73;100.00
64352;BME280;50680;52.626;-8.668;2023-01-28T00:23:34;103434.25;;;1.82;100.00
64352;BME280;50680;52.626;-8.668;2023-01-28T00:26:04;103436.16;;;1.91;100.00
64352;BME280;50680;52.626;-8.668;2023-01-28T00:28:31;103433.69;;;1.96;100.00
64352;BME280;50680;52.626;-8.668;2023-01-28T00:31:05;103426.03;;;2.02;100.00
64352;BME280;50680;52.626;-8.668;2023-01-28T00:33:33;103410.59;;;2.06;100.00
64352;BME280;50680;52.626;-8.668;2023-01-28T00:36:00;103400.28;;;2.08;100.00
64352;BME280;50680;52.626;-8.668;2023-01-28T00:38:28;103401.00;;;2.02;100.00
64352;BME280;50680;52.626;-8.668;2023-01-28T00:40:55;103403.69;;;2.07;100.00
64352;BME280;50680;52.626;-8.668;2023-01-28T00:43:22;103406.34;;;2.10;100.00
64352;BME280;50680;52.626;-8.668;2023-01-28T00:45:48;103401.28;;;2.16;100.00
64352;BME280;50680;52.626;-8.668;2023-01-28T00:48:15;103398.78;;;2.21;100.00
64352;BME280;50680;52.626;-8.668;2023-01-28T00:50:43;103401.47;;;2.25;100.00
64352;BME280;50680;52.626;-8.668;2023-01-28T00:53:11;103406.69;;;2.27;100.00
64352;BME280;50680;52.626;-8.668;2023-01-28T00:55:37;103401.53;;;2.29;100.00
64352;BME280;50680;52.626;-8.668;2023-01-28T00:58:04;103406.75;;;2.32;100.00
64352;BME280;50680;52.626;-8.668;2023-01-28T01:00:31;103400.69;;;2.31;100.00
64352;BME280;50680;52.626;-8.668;2023-01-28T01:02:58;103394.66;;;2.31;100.00
64352;BME280;50680;52.626;-8.668;2023-01-28T01:05:25;103393.75;;;2.29;100.00
64352;BME280;50680;52.626;-8.668;2023-01-28T01:07:52;103388.59;;;2.29;100.00
64352;BME280;50680;52.626;-8.668;2023-01-28T01:10:19;103384.25;;;2.28;100.00
64352;BME280;50680;52.626;-8.668;2023-01-28T01:12:47;103382.56;;;2.31;100.00
64352;BME280;50680;52.626;-8.668;2023-01-28T01:15:14;103378.25;;;2.32;100.00
64352;BME280;50680;52.626;-8.668;2023-01-28T01:17:46;103377.41;;;2.31;100.00
64352;BME280;50680;52.626;-8.668;2023-01-28T01:20:26;103380.00;;;2.31;100.00
64352;BME280;50680;52.626;-8.668;2023-01-28T01:22:53;103375.66;;;2.30;100.00
64352;BME280;50680;52.626;-8.668;2023-01-28T01:25:22;103367.88;;;2.29;100.00
64352;BME280;50680;52.626;-8.668;2023-01-28T01:27:48;103372.16;;;2.28;100.00
64352;BME280;50680;52.626;-8.668;2023-01-28T01:30:15;103353.94;;;2.22;100.00
64352;BME280;50680;52.626;-8.668;2023-01-28T01:32:42;103367.03;;;2.31;100.00
64352;BME280;50680;52.626;-8.668;2023-01-28T01:35:09;103360.19;;;2.35;100.00
64352;BME280;50680;52.626;-8.668;2023-01-28T01:37:36;103371.47;;;2.38;100.00
64352;BME280;50680;52.626;-8.668;2023-01-28T01:40:03;103366.41;;;2.43;100.00
64352;BME280;50680;52.626;-8.668;2023-01-28T01:42:31;103365.66;;;2.50;100.00
64352;BME280;50680;52.626;-8.668;2023-01-28T01:45:04;103354.47;;;2.54;100.00
64352;BME280;50680;52.626;-8.668;2023-01-28T01:47:58;103356.31;;;2.60;100.00
64352;BME280;50680;52.626;-8.668;2023-01-28T01:50:33;103349.47;;;2.63;100.00
64352;BME280;50680;52.626;-8.668;2023-01-28T01:53:03;103351.25;;;2.68;100.00
64352;BME280;50680;52.626;-8.668;2023-01-28T01:55:33;103352.19;;;2.71;100.00
64352;BME280;50680;52.626;-8.668;2023-01-28T01:58:06;103344.44;;;2.73;100.00
64352;BME280;50680;52.626;-8.668;2023-01-28T02:00:34;103342.72;;;2.75;100.00
64352;BME280;50680;52.626;-8.668;2023-01-28T02:03:01;103342.72;;;2.75;100.00
64352;BME280;50680;52.626;-8.668;2023-01-28T02:05:28;103342.72;;;2.75;100.00
64352;BME280;50680;52.626;-8.668;2023-01-28T02:07:57;103336.72;;;2.76;100.00
64352;BME280;50680;52.626;-8.668;2023-01-28T02:10:43;103348.00;;;2.79;100.00
64352;BME280;50680;52.626;-8.668;2023-01-28T02:13:11;103348.03;;;2.81;100.00
64352;BME280;50680;52.626;-8.668;2023-01-28T02:15:41;103347.19;;;2.83;100.00
64352;BME280;50680;52.626;-8.668;2023-01-28T02:18:08;103349.00;;;2.88;100.00
64352;BME280;50680;52.626;-8.668;2023-01-28T02:23:59;103348.22;;;2.93;100.00
64352;BME280;50680;52.626;-8.668;2023-01-28T02:31:51;103349.25;;;3.05;100.00
64352;BME280;50680;52.626;-8.668;2023-01-28T02:37:39;103350.19;;;3.10;100.00
64352;BME280;50680;52.626;-8.668;2023-01-28T02:40:12;103352.84;;;3.16;100.00
64352;BME280;50680;52.626;-8.668;2023-01-28T02:42:40;103343.38;;;3.18;100.00
64352;BME280;50680;52.626;-8.668;2023-01-28T02:45:20;103344.28;;;3.22;100.00
64352;BME280;50680;52.626;-8.668;2023-01-28T02:47:48;103336.53;;;3.23;100.00
64352;BME280;50680;52.626;-8.668;2023-01-28T02:50:35;103332.31;;;3.30;100.00
64352;BME280;50680;52.626;-8.668;2023-01-28T02:53:30;103333.22;;;3.33;100.00
64352;BME280;50680;52.626;-8.668;2023-01-28T02:59:10;103331.50;;;3.32;100.00
64352;BME280;50680;52.626;-8.668;2023-01-28T03:02:06;103339.34;;;3.38;100.00
64352;BME280;50680;52.626;-8.668;2023-01-28T03:04:40;103327.25;;;3.41;100.00
64352;BME280;50680;52.626;-8.668;2023-01-28T03:07:11;103329.06;;;3.46;100.00
64352;BME280;50680;52.626;-8.668;2023-01-28T03:09:42;103316.97;;;3.47;100.00
64352;BME280;50680;52.626;-8.668;2023-01-28T03:12:22;103321.34;;;3.52;100.00
64352;BME280;50680;52.626;-8.668;2023-01-28T03:20:53;103307.56;;;3.55;100.00
64352;BME280;50680;52.626;-8.668;2023-01-28T03:23:49;103308.44;;;3.57;100.00
64352;BME280;50680;52.626;-8.668;2023-01-28T03:27:05;103311.06;;;3.58;100.00
64352;BME280;50680;52.626;-8.668;2023-01-28T03:29:49;103319.75;;;3.62;100.00
64352;BME280;50680;52.626;-8.668;2023-01-28T03:32:38;103319.78;;;3.65;100.00
64352;BME280;50680;52.626;-8.668;2023-01-28T03:35:28;103311.13;;;3.66;100.00
64352;BME280;50680;52.626;-8.668;2023-01-28T03:38:15;103319.78;;;3.65;100.00
64352;BME280;50680;52.626;-8.668;2023-01-28T03:40:58;103325.00;;;3.68;100.00
64352;BME280;50680;52.626;-8.668;2023-01-28T03:43:29;103330.22;;;3.71;100.00
64352;BME280;50680;52.626;-8.668;2023-01-28T03:45:56;103327.66;;;3.73;100.00
64352;BME280;50680;52.626;-8.668;2023-01-28T03:48:25;103335.44;;;3.74;100.00
64352;BME280;50680;52.626;-8.668;2023-01-28T03:50:54;103332.91;;;3.79;100.00
64352;BME280;50680;52.626;-8.668;2023-01-28T03:53:21;103337.25;;;3.82;100.00
64352;BME280;50680;52.626;-8.668;2023-01-28T03:55:50;103324.28;;;3.82;100.00
64352;BME280;50680;52.626;-8.668;2023-01-28T03:58:18;103326.91;;;3.85;100.00
64352;BME280;50680;52.626;-8.668;2023-01-28T04:00:46;103308.72;;;3.82;100.00
64352;BME280;50680;52.626;-8.668;2023-01-28T04:03:15;103305.28;;;3.83;100.00
64352;BME280;50680;52.626;-8.668;2023-01-28T04:05:47;103323.47;;;3.87;100.00
64352;BME280;50680;52.626;-8.668;2023-01-28T04:08:23;103320.88;;;3.87;100.00
64352;BME280;50680;52.626;-8.668;2023-01-28T04:10:50;103315.69;;;3.87;100.00
64352;BME280;50680;52.626;-8.668;2023-01-28T04:13:17;103315.69;;;3.87;100.00
64352;BME280;50680;52.626;-8.668;2023-01-28T04:15:44;103315.69;;;3.87;100.00
64352;BME280;50680;52.626;-8.668;2023-01-28T04:18:11;103313.97;;;3.88;100.00
64352;BME280;50680;52.626;-8.668;2023-01-28T04:20:38;103320.88;;;3.89;100.00
64352;BME280;50680;52.626;-8.668;2023-01-28T04:23:06;103318.31;;;3.90;100.00
64352;BME280;50680;52.626;-8.668;2023-01-28T04:25:35;103318.34;;;3.92;100.00
64352;BME280;50680;52.626;-8.668;2023-01-28T04:28:02;103315.75;;;3.93;100.00
64352;BME280;50680;52.626;-8.668;2023-01-28T04:30:29;103314.91;;;3.93;100.00
64352;BME280;50680;52.626;-8.668;2023-01-28T04:32:57;103314.03;;;3.94;100.00
64352;BME280;50680;52.626;-8.668;2023-01-28T04:35:23;103317.50;;;3.96;100.00
64352;BME280;50680;52.626;-8.668;2023-01-28T04:37:50;103315.81;;;3.97;100.00
64352;BME280;50680;52.626;-8.668;2023-01-28T04:40:17;103319.25;;;3.97;100.00
64352;BME280;50680;52.626;-8.668;2023-01-28T04:42:52;103314.94;;;3.98;100.00
64352;BME280;50680;52.626;-8.668;2023-01-28T04:45:19;103319.25;;;3.97;100.00
64352;BME280;50680;52.626;-8.668;2023-01-28T04:47:46;103319.25;;;3.95;100.00
64352;BME280;50680;52.626;-8.668;2023-01-28T04:50:13;103311.44;;;3.94;100.00
64352;BME280;50680;52.626;-8.668;2023-01-28T04:52:40;103318.38;;;3.95;100.00
64352;BME280;50680;52.626;-8.668;2023-01-28T04:55:07;103324.44;;;3.95;100.00
64352;BME280;50680;52.626;-8.668;2023-01-28T04:57:34;103323.59;;;3.97;100.00
64352;BME280;50680;52.626;-8.668;2023-01-28T05:00:01;103318.38;;;3.95;100.00
64352;BME280;50680;52.626;-8.668;2023-01-28T05:02:29;103318.38;;;3.95;100.00
64352;BME280;50680;52.626;-8.668;2023-01-28T05:04:56;103322.72;;;3.94;100.00
64352;BME280;50680;52.626;-8.668;2023-01-28T05:07:22;103318.38;;;3.95;100.00
64352;BME280;50680;52.626;-8.668;2023-01-28T05:09:49;103329.63;;;3.97;100.00
64352;BME280;50680;52.626;-8.668;2023-01-28T05:12:16;103321.81;;;3.94;100.00
64352;BME280;50680;52.626;-8.668;2023-01-28T05:14:43;103317.53;;;3.99;100.00
64352;BME280;50680;52.626;-8.668;2023-01-28T05:17:09;103319.31;;;4.02;100.00
64352;BME280;50680;52.626;-8.668;2023-01-28T05:19:36;103322.78;;;4.04;100.00
64352;BME280;50680;52.626;-8.668;2023-01-28T05:22:03;103330.63;;;4.07;100.00
64352;BME280;50680;52.626;-8.668;2023-01-28T05:24:30;103321.94;;;4.08;100.00
64352;BME280;50680;52.626;-8.668;2023-01-28T05:26:57;103315.06;;;4.08;100.00
64352;BME280;50680;52.626;-8.668;2023-01-28T05:29:24;103325.44;;;4.08;100.00
64352;BME280;50680;52.626;-8.668;2023-01-28T05:31:51;103322.84;;;4.10;100.00
64352;BME280;50680;52.626;-8.668;2023-01-28T05:34:17;103324.59;;;4.11;100.00
64352;BME280;50680;52.626;-8.668;2023-01-28T05:36:44;103331.53;;;4.12;100.00
64352;BME280;50680;52.626;-8.668;2023-01-28T05:39:11;103335.00;;;4.12;100.00
64352;BME280;50680;52.626;-8.668;2023-01-28T05:41:38;103345.34;;;4.11;100.00
64352;BME280;50680;52.626;-8.668;2023-01-28T05:44:04;103356.59;;;4.11;100.00
64352;BME280;50680;52.626;-8.668;2023-01-28T05:46:31;103360.06;;;4.10;100.00
64352;BME280;50680;52.626;-8.668;2023-01-28T05:48:58;103364.38;;;4.10;100.00
64352;BME280;50680;52.626;-8.668;2023-01-28T05:51:25;103361.78;;;4.08;100.00
64352;BME280;50680;52.626;-8.668;2023-01-28T05:53:52;103364.38;;;4.10;100.00
64352;BME280;50680;52.626;-8.668;2023-01-28T05:56:18;103360.94;;;4.11;100.00
64352;BME280;50680;52.626;-8.668;2023-01-28T05:58:45;103355.75;;;4.11;100.00
64352;BME280;50680;52.626;-8.668;2023-01-28T06:01:12;103359.19;;;4.11;100.00
64352;BME280;50680;52.626;-8.668;2023-01-28T06:03:39;103367.81;;;4.07;100.00
64352;BME280;50680;52.626;-8.668;2023-01-28T06:06:05;103359.16;;;4.05;100.00
64352;BME280;50680;52.626;-8.668;2023-01-28T06:08:32;103356.53;;;4.04;100.00
64352;BME280;50680;52.626;-8.668;2023-01-28T06:10:59;103366.06;;;4.03;100.00
64352;BME280;50680;52.626;-8.668;2023-01-28T06:13:26;103360.88;;;4.03;100.00
64352;BME280;50680;52.626;-8.668;2023-01-28T06:15:53;103369.47;;;4.01;100.00
64352;BME280;50680;52.626;-8.668;2023-01-28T06:18:19;103366.03;;;4.02;100.00
64352;BME280;50680;52.626;-8.668;2023-01-28T06:20:48;103373.84;;;4.03;100.00
64352;BME280;50680;52.626;-8.668;2023-01-28T06:23:15;103344.28;;;3.92;100.00
64352;BME280;50680;52.626;-8.668;2023-01-28T06:25:42;103364.34;;;4.05;100.00
64352;BME280;50680;52.626;-8.668;2023-01-28T06:28:09;103369.56;;;4.07;100.00
64352;BME280;50680;52.626;-8.668;2023-01-28T06:30:36;103363.50;;;4.08;100.00
64352;BME280;50680;52.626;-8.668;2023-01-28T06:33:03;103363.50;;;4.09;100.00
64352;BME280;50680;52.626;-8.668;2023-01-28T06:35:29;103366.13;;;4.09;100.00
64352;BME280;50680;52.626;-8.668;2023-01-28T06:37:56;103359.19;;;4.10;100.00
64352;BME280;50680;52.626;-8.668;2023-01-28T06:40:23;103363.56;;;4.12;100.00
64352;BME280;50680;52.626;-8.668;2023-01-28T06:42:51;103359.25;;;4.14;100.00
64352;BME280;50680;52.626;-8.668;2023-01-28T06:45:18;103358.38;;;4.12;100.00
64352;BME280;50680;52.626;-8.668;2023-01-28T06:47:44;103354.91;;;4.12;100.00
64352;BME280;50680;52.626;-8.668;2023-01-28T06:50:11;103354.91;;;4.12;100.00
64352;BME280;50680;52.626;-8.668;2023-01-28T06:52:39;103354.88;;;4.13;100.00
64352;BME280;50680;52.626;-8.668;2023-01-28T06:55:07;103354.03;;;4.13;100.00
64352;BME280;50680;52.626;-8.668;2023-01-28T06:57:37;103353.19;;;4.14;100.00
64352;BME280;50680;52.626;-8.668;2023-01-28T07:00:06;103347.13;;;4.17;100.00
64352;BME280;50680;52.626;-8.668;2023-01-28T07:02:34;103346.28;;;4.16;100.00
64352;BME280;50680;52.626;-8.668;2023-01-28T07:05:00;103342.81;;;4.16;100.00
64352;BME280;50680;52.626;-8.668;2023-01-28T07:07:28;103341.06;;;4.14;100.00
64352;BME280;50680;52.626;-8.668;2023-01-28T07:09:54;103335.88;;;4.14;100.00
64352;BME280;50680;52.626;-8.668;2023-01-28T07:12:21;103337.63;;;4.16;100.00
64352;BME280;50680;52.626;-8.668;2023-01-28T07:14:48;103342.81;;;4.16;100.00
64352;BME280;50680;52.626;-8.668;2023-01-28T07:17:15;103342.81;;;4.19;100.00
64352;BME280;50680;52.626;-8.668;2023-01-28T07:19:42;103337.63;;;4.19;100.00
64352;BME280;50680;52.626;-8.668;2023-01-28T07:22:08;103335.03;;;4.19;100.00
64352;BME280;50680;52.626;-8.668;2023-01-28T07:24:35;103336.78;;;4.18;100.00
64352;BME280;50680;52.626;-8.668;2023-01-28T07:27:02;103340.22;;;4.19;100.00
64352;BME280;50680;52.626;-8.668;2023-01-28T07:29:30;103347.19;;;4.20;100.00
64352;BME280;50680;52.626;-8.668;2023-01-28T07:31:56;103342.00;;;4.21;100.00
64352;BME280;50680;52.626;-8.668;2023-01-28T07:34:23;103335.94;;;4.21;100.00
64352;BME280;50680;52.626;-8.668;2023-01-28T07:36:50;103342.03;;;4.23;100.00
64352;BME280;50680;52.626;-8.668;2023-01-28T07:39:17;103337.69;;;4.25;100.00
64352;BME280;50680;52.626;-8.668;2023-01-28T07:41:44;103341.19;;;4.27;100.00
64352;BME280;50680;52.626;-8.668;2023-01-28T07:44:11;103337.75;;;4.28;100.00
64352;BME280;50680;52.626;-8.668;2023-01-28T07:46:37;103338.59;;;4.28;100.00
64352;BME280;50680;52.626;-8.668;2023-01-28T07:49:04;103349.00;;;4.30;100.00
64352;BME280;50680;52.626;-8.668;2023-01-28T07:51:31;103357.69;;;4.32;100.00
64352;BME280;50680;52.626;-8.668;2023-01-28T07:53:58;103349.91;;;4.33;100.00
64352;BME280;50680;52.626;-8.668;2023-01-28T07:56:25;103349.06;;;4.38;100.00
64352;BME280;50680;52.626;-8.668;2023-01-28T07:58:54;103358.63;;;4.40;100.00
64352;BME280;50680;52.626;-8.668;2023-01-28T08:01:21;103366.44;;;4.42;100.00
64352;BME280;50680;52.626;-8.668;2023-01-28T08:03:48;103351.72;;;4.42;100.00
64352;BME280;50680;52.626;-8.668;2023-01-28T08:06:16;103358.69;;;4.45;100.00
64352;BME280;50680;52.626;-8.668;2023-01-28T08:08:42;103356.97;;;4.47;100.00
64352;BME280;50680;52.626;-8.668;2023-01-28T08:11:09;103357.84;;;4.49;100.00
64352;BME280;50680;52.626;-8.668;2023-01-28T08:13:39;103363.94;;;4.52;100.00
64352;BME280;50680;52.626;-8.668;2023-01-28T08:16:06;103363.94;;;4.52;100.00
64352;BME280;50680;52.626;-8.668;2023-01-28T08:18:33;103364.78;;;4.51;100.00
64352;BME280;50680;52.626;-8.668;2023-01-28T08:21:00;103370.88;;;4.57;100.00
64352;BME280;50680;52.626;-8.668;2023-01-28T08:23:26;103373.50;;;4.58;100.00
64352;BME280;50680;52.626;-8.668;2023-01-28T08:25:57;103374.41;;;4.60;100.00
64352;BME280;50680;52.626;-8.668;2023-01-28T08:28:24;103371.81;;;4.63;100.00
64352;BME280;50680;52.626;-8.668;2023-01-28T08:30:51;103374.44;;;4.65;100.00
64352;BME280;50680;52.626;-8.668;2023-01-28T08:33:19;103375.31;;;4.68;100.00
64352;BME280;50680;52.626;-8.668;2023-01-28T08:35:46;103376.22;;;4.72;100.00
64352;BME280;50680;52.626;-8.668;2023-01-28T08:38:13;103381.44;;;4.75;100.00
64352;BME280;50680;52.626;-8.668;2023-01-28T08:40:40;103383.19;;;4.79;100.00
64352;BME280;50680;52.626;-8.668;2023-01-28T08:43:07;103381.50;;;4.81;100.00
64352;BME280;50680;52.626;-8.668;2023-01-28T08:45:34;103383.25;;;4.85;100.00
64352;BME280;50680;52.626;-8.668;2023-01-28T08:48:04;103381.53;;;4.87;100.00
64352;BME280;50680;52.626;-8.668;2023-01-28T08:50:34;103380.69;;;4.88;100.00
64352;BME280;50680;52.626;-8.668;2023-01-28T08:53:08;103377.25;;;4.93;100.00
64352;BME280;50680;52.626;-8.668;2023-01-28T08:55:35;103380.72;;;4.95;100.00
64352;BME280;50680;52.626;-8.668;2023-01-28T08:58:04;103378.13;;;4.98;100.00
64352;BME280;50680;52.626;-8.668;2023-01-28T09:00:33;103384.25;;;5.04;100.00
64352;BME280;50680;52.626;-8.668;2023-01-28T09:03:01;103378.22;;;5.07;100.00
64352;BME280;50680;52.626;-8.668;2023-01-28T09:05:33;103385.19;;;5.11;100.00
64352;BME280;50680;52.626;-8.668;2023-01-28T09:08:05;103386.06;;;5.15;100.00
64352;BME280;50680;52.626;-8.668;2023-01-28T09:10:32;103383.47;;;5.16;100.00
64352;BME280;50680;52.626;-8.668;2023-01-28T09:13:04;103380.91;;;5.21;100.00
64352;BME280;50680;52.626;-8.668;2023-01-28T09:15:32;103391.31;;;5.24;100.00
64352;BME280;50680;52.626;-8.668;2023-01-28T09:17:59;103390.47;;;5.26;100.00
64352;BME280;50680;52.626;-8.668;2023-01-28T09:20:26;103380.09;;;5.30;100.00
64352;BME280;50680;52.626;-8.668;2023-01-28T09:22:53;103383.59;;;5.35;100.00
64352;BME280;50680;52.626;-8.668;2023-01-28T09:25:20;103384.47;;;5.43;100.00
64352;BME280;50680;52.626;-8.668;2023-01-28T09:27:47;103385.38;;;5.46;100.00
64352;BME280;50680;52.626;-8.668;2023-01-28T09:30:14;103381.06;;;5.55;100.00
64352;BME280;50680;52.626;-8.668;2023-01-28T09:32:42;103388.06;;;5.65;100.00
64352;BME280;50680;52.626;-8.668;2023-01-28T09:35:09;103391.59;;;5.73;100.00
64352;BME280;50680;52.626;-8.668;2023-01-28T09:37:36;103381.16;;;5.79;100.00
64352;BME280;50680;52.626;-8.668;2023-01-28T09:40:03;103386.41;;;5.82;100.00
64352;BME280;50680;52.626;-8.668;2023-01-28T09:47:58;103375.16;;;5.91;100.00
64352;BME280;50680;52.626;-8.668;2023-01-28T09:53:01;103370.00;;;5.96;100.00
64352;BME280;50680;52.626;-8.668;2023-01-28T09:57:58;103370.00;;;6.07;100.00
64352;BME280;50680;52.626;-8.668;2023-01-28T10:00:32;103367.44;;;6.11;100.00
64352;BME280;50680;52.626;-8.668;2023-01-28T10:16:59;103353.56;;;6.49;100.00
64352;BME280;50680;52.626;-8.668;2023-01-28T10:19:35;103350.09;;;6.58;100.00
64352;BME280;50680;52.626;-8.668;2023-01-28T10:22:17;103347.47;;;6.67;100.00
64352;BME280;50680;52.626;-8.668;2023-01-28T10:24:54;103344.00;;;6.81;100.00
64352;BME280;50680;52.626;-8.668;2023-01-28T10:27:27;103343.13;;;6.92;100.00
64352;BME280;50680;52.626;-8.668;2023-01-28T10:29:58;103341.34;;;7.01;100.00
64352;BME280;50680;52.626;-8.668;2023-01-28T10:32:29;103364.81;;;7.07;100.00
64352;BME280;50680;52.626;-8.668;2023-01-28T10:34:57;103356.13;;;7.06;100.00
64352;BME280;50680;52.626;-8.668;2023-01-28T10:37:33;103357.00;;;7.11;100.00
64352;BME280;50680;52.626;-8.668;2023-01-28T10:40:01;103363.06;;;7.17;100.00
64352;BME280;50680;52.626;-8.668;2023-01-28T10:42:34;103363.03;;;7.23;100.00
64352;BME280;50680;52.626;-8.668;2023-01-28T10:45:13;103360.44;;;7.27;100.00
64352;BME280;50680;52.626;-8.668;2023-01-28T10:47:49;103367.38;;;7.34;100.00
64352;BME280;50680;52.626;-8.668;2023-01-28T10:50:21;103369.97;;;7.41;100.00
64352;BME280;50680;52.626;-8.668;2023-01-28T10:53:00;103357.78;;;7.38;100.00
64352;BME280;50680;52.626;-8.668;2023-01-28T10:55:54;103364.72;;;7.50;100.00
64352;BME280;50680;52.626;-8.668;2023-01-28T10:58:26;103361.19;;;7.54;100.00
64352;BME280;50680;52.626;-8.668;2023-01-28T11:00:56;103358.56;;;7.62;100.00
64352;BME280;50680;52.626;-8.668;2023-01-28T11:03:25;103362.91;;;7.66;100.00
64352;BME280;50680;52.626;-8.668;2023-01-28T11:06:01;103367.22;;;7.71;100.00
64352;BME280;50680;52.626;-8.668;2023-01-28T11:08:42;103361.97;;;7.75;100.00
64352;BME280;50680;52.626;-8.668;2023-01-28T11:11:13;103359.34;;;7.79;100.00
64352;BME280;50680;52.626;-8.668;2023-01-28T11:13:50;103366.28;;;7.86;100.00
64352;BME280;50680;52.626;-8.668;2023-01-28T11:16:19;103363.59;;;7.97;100.00
64352;BME280;50680;52.626;-8.668;2023-01-28T11:18:51;103358.38;;;8.02;100.00
64352;BME280;50680;52.626;-8.668;2023-01-28T11:21:19;103364.44;;;8.01;100.00
64352;BME280;50680;52.626;-8.668;2023-01-28T11:26:17;103364.44;;;7.99;100.00
64352;BME280;50680;52.626;-8.668;2023-01-28T11:28:45;103363.56;;;8.05;100.00
64352;BME280;50680;52.626;-8.668;2023-01-28T11:31:14;103360.91;;;8.11;100.00
64352;BME280;50680;52.626;-8.668;2023-01-28T11:33:49;103353.16;;;7.99;100.00
64352;BME280;50680;52.626;-8.668;2023-01-28T11:36:23;103354.91;;;7.95;100.00
64352;BME280;50680;52.626;-8.668;2023-01-28T11:39:02;103354.06;;;7.90;100.00
64352;BME280;50680;52.626;-8.668;2023-01-28T11:41:33;103355.78;;;7.96;100.00
64352;BME280;50680;52.626;-8.668;2023-01-28T11:44:24;103349.66;;;8.00;100.00
64352;BME280;50680;52.626;-8.668;2023-01-28T11:47:44;103350.53;;;8.00;100.00
64352;BME280;50680;52.626;-8.668;2023-01-28T11:53:37;103360.03;;;8.12;100.00
64352;BME280;50680;52.626;-8.668;2023-01-28T12:01:42;103351.16;;;8.36;100.00
64352;BME280;50680;52.626;-8.668;2023-01-28T12:04:20;103346.78;;;8.35;100.00
64352;BME280;50680;52.626;-8.668;2023-01-28T12:07:16;103345.06;;;8.36;100.00
64352;BME280;50680;52.626;-8.668;2023-01-28T12:28:16;103307.44;;;9.36;100.00
64352;BME280;50680;52.626;-8.668;2023-01-28T12:34:34;103303.56;;;9.66;100.00
64352;BME280;50680;52.626;-8.668;2023-01-28T12:36:47;103305.13;;;9.79;100.00
64352;BME280;50680;52.626;-8.668;2023-01-28T12:42:02;103302.19;;;10.01;100.00
64352;BME280;50680;52.626;-8.668;2023-01-28T12:44:37;103299.50;;;10.06;100.00
64352;BME280;50680;52.626;-8.668;2023-01-28T12:47:12;103299.38;;;10.13;100.00
64352;BME280;50680;52.626;-8.668;2023-01-28T12:49:49;103286.19;;;10.20;100.00
64352;BME280;50680;52.626;-8.668;2023-01-28T12:52:30;103282.66;;;10.21;100.00
64352;BME280;50680;52.626;-8.668;2023-01-28T12:57:48;103264.19;;;10.28;100.00
64352;BME280;50680;52.626;-8.668;2023-01-28T13:00:27;103252.75;;;10.32;100.00
64352;BME280;50680;52.626;-8.668;2023-01-28T13:06:23;103266.81;;;10.27;100.00
64352;BME280;50680;52.626;-8.668;2023-01-28T13:08:47;103258.94;;;10.27;100.00
64352;BME280;50680;52.626;-8.668;2023-01-28T13:11:16;103253.78;;;10.21;100.00
64352;BME280;50680;52.626;-8.668;2023-01-28T13:13:44;103253.78;;;10.21;100.00
64352;BME280;50680;52.626;-8.668;2023-01-28T13:16:12;103253.00;;;10.15;100.00
64352;BME280;50680;52.626;-8.668;2023-01-28T13:21:28;103252.22;;;10.10;100.00
64352;BME280;50680;52.626;-8.668;2023-01-28T13:26:51;103240.09;;;10.03;100.00
64352;BME280;50680;52.626;-8.668;2023-01-28T13:31:54;103236.06;;;9.84;100.00
64352;BME280;50680;52.626;-8.668;2023-01-28T13:34:36;103236.34;;;9.64;100.00
64352;BME280;50680;52.626;-8.668;2023-01-28T13:39:54;103241.78;;;9.50;100.00
64352;BME280;50680;52.626;-8.668;2023-01-28T13:42:29;103244.66;;;9.34;100.00
64352;BME280;50680;52.626;-8.668;2023-01-28T13:47:45;103241.50;;;9.06;100.00
64352;BME280;50680;52.626;-8.668;2023-01-28T13:50:15;103234.75;;;8.88;100.00
64352;BME280;50680;52.626;-8.668;2023-01-28T13:52:49;103234.66;;;8.94;100.00
64352;BME280;50680;52.626;-8.668;2023-01-28T13:55:20;103225.09;;;8.93;100.00
64352;BME280;50680;52.626;-8.668;2023-01-28T14:12:16;103225.88;;;9.00;100.00
64352;BME280;50680;52.626;-8.668;2023-01-28T14:17:54;103221.53;;;8.97;100.00
64352;BME280;50680;52.626;-8.668;2023-01-28T14:20:25;103213.63;;;9.05;100.00
64352;BME280;50680;52.626;-8.668;2023-01-28T14:23:00;103222.31;;;9.07;100.00
64352;BME280;50680;52.626;-8.668;2023-01-28T14:28:11;103221.34;;;9.14;100.00
64352;BME280;50680;52.626;-8.668;2023-01-28T14:33:10;103221.22;;;9.22;100.00
64352;BME280;50680;52.626;-8.668;2023-01-28T14:35:42;103221.22;;;9.23;100.00
64352;BME280;50680;52.626;-8.668;2023-01-28T14:38:14;103225.75;;;9.11;100.00
64352;BME280;50680;52.626;-8.668;2023-01-28T14:40:43;103230.94;;;9.14;100.00
64352;BME280;50680;52.626;-8.668;2023-01-28T14:43:15;103227.44;;;9.15;100.00
64352;BME280;50680;52.626;-8.668;2023-01-28T14:45:56;103230.97;;;9.11;100.00
64352;BME280;50680;52.626;-8.668;2023-01-28T14:51:25;103250.16;;;9.11;100.00
64352;BME280;50680;52.626;-8.668;2023-01-28T14:54:23;103251.94;;;9.11;100.00
64352;BME280;50680;52.626;-8.668;2023-01-28T14:57:07;103257.16;;;9.12;100.00
64352;BME280;50680;52.626;-8.668;2023-01-28T14:59:58;103247.69;;;8.99;100.00
64352;BME280;50680;52.626;-8.668;2023-01-28T15:02:29;103244.19;;;9.01;100.00
64352;BME280;50680;52.626;-8.668;2023-01-28T15:05:08;103242.50;;;8.96;100.00